Time;durP1;ratioP1;P1;durP2;ratioP2;P2;SDS_P1;SDS_P2;PMS_P1;PMS_P2;Temp;Humidity;BMP_temperature;BMP_pressure;BME280_temperature;BME280_humidity;BME280_pressure;Samples;Min_cycle;Max_cycle;Signal;HPM_P1;HPM_P2
2023/01/06 00:02:11;;;;;;;;;;;12.00;99.90;;;;;;4994975;28;19957;-67
2023/01/06 00:04:37;;;;;;;;;;;12.00;99.90;;;;;;4996238;28;19910;-67
2023/01/06 00:07:02;;;;;;;;;;;11.90;99.90;;;;;;5002191;28;19905;-68
2023/01/06 00:09:28;;;;;;;;;;;11.90;99.90;;;;;;5015514;28;20437;-67
2023/01/06 00:11:53;;;;;;;;;;;12.00;99.90;;;;;;5015526;28;19909;-67
2023/01/06 00:14:19;;;;;;;;;;;12.00;99.90;;;;;;4998056;28;19905;-67
2023/01/06 00:16:44;;;;;;;;;;;12.00;99.90;;;;;;4995689;28;19910;-68
2023/01/06 00:19:10;;;;;;;;;;;12.00;99.90;;;;;;4996036;28;19913;-68
2023/01/06 00:21:35;;;;;;;;;;;11.90;99.90;;;;;;4995747;28;19917;-66
2023/01/06 00:24:01;;;;;;;;;;;12.00;99.90;;;;;;4995702;28;19912;-67
2023/01/06 00:26:26;;;;;;;;;;;12.00;99.90;;;;;;4995573;28;19910;-67
2023/01/06 00:28:53;;;;;;;;;;;12.00;99.90;;;;;;4995781;28;19913;-67
2023/01/06 00:31:18;;;;;;;;;;;11.90;99.90;;;;;;4995581;28;19912;-67
2023/01/06 00:33:44;;;;;;;;;;;11.80;99.90;;;;;;4995993;28;19906;-67
2023/01/06 00:36:11;;;;;;;;;;;11.80;99.90;;;;;;4995742;28;19996;-66
2023/01/06 00:38:36;;;;;;;;;;;11.80;99.90;;;;;;4975284;28;19914;-67
2023/01/06 00:41:03;;;;;;;;;;;12.00;99.90;;;;;;4976076;28;19942;-67
2023/01/06 00:43:30;;;;;;;;;;;12.00;99.90;;;;;;4978587;28;19993;-66
2023/01/06 00:45:55;;;;;;;;;;;12.00;99.90;;;;;;4995374;28;19914;-67
2023/01/06 00:48:21;;;;;;;;;;;12.00;99.90;;;;;;4995283;28;19960;-67
2023/01/06 00:50:46;;;;;;;;;;;11.90;99.90;;;;;;4995821;28;20393;-67
2023/01/06 00:53:12;;;;;;;;;;;11.90;99.90;;;;;;4995557;28;20367;-66
2023/01/06 00:55:37;;;;;;;;;;;11.90;99.90;;;;;;4995077;28;20335;-66
2023/01/06 00:58:03;;;;;;;;;;;11.90;99.90;;;;;;4995228;28;19906;-66
2023/01/06 01:00:28;;;;;;;;;;;12.10;99.90;;;;;;4995042;28;19905;-67
2023/01/06 01:02:53;;;;;;;;;;;12.00;99.90;;;;;;4995156;28;19905;-67
2023/01/06 01:05:19;;;;;;;;;;;12.10;99.90;;;;;;4995234;28;19910;-68
2023/01/06 01:07:44;;;;;;;;;;;12.00;99.90;;;;;;4983242;28;20440;-67
2023/01/06 01:10:10;;;;;;;;;;;12.10;99.90;;;;;;4991766;28;19909;-66
2023/01/06 01:12:36;;;;;;;;;;;12.10;99.90;;;;;;4994902;28;20004;-67
2023/01/06 01:15:01;;;;;;;;;;;12.10;99.90;;;;;;4994872;28;19952;-66
2023/01/06 01:17:28;;;;;;;;;;;11.90;99.90;;;;;;4994772;28;19912;-68
2023/01/06 01:19:54;;;;;;;;;;;11.90;99.90;;;;;;4994925;28;19906;-67
2023/01/06 01:22:20;;;;;;;;;;;11.90;99.90;;;;;;4994551;28;19956;-67
2023/01/06 01:24:46;;;;;;;;;;;12.00;99.90;;;;;;4994631;28;19910;-66
2023/01/06 01:27:11;;;;;;;;;;;12.00;99.90;;;;;;4993333;28;20015;-67
2023/01/06 01:29:37;;;;;;;;;;;12.10;99.90;;;;;;4994614;28;19941;-67
2023/01/06 01:32:03;;;;;;;;;;;12.00;99.90;;;;;;4995045;28;19905;-67
2023/01/06 01:34:28;;;;;;;;;;;12.00;99.90;;;;;;4994678;28;19905;-67
2023/01/06 01:36:54;;;;;;;;;;;11.80;99.90;;;;;;4999130;28;19910;-67
2023/01/06 01:39:21;;;;;;;;;;;11.90;99.90;;;;;;5004175;28;19910;-67
2023/01/06 01:41:47;;;;;;;;;;;12.00;99.90;;;;;;4994182;28;20289;-67
2023/01/06 01:44:31;;;;;;;;;;;12.10;99.90;;;;;;4994496;28;19989;-67
2023/01/06 01:46:56;;;;;;;;;;;12.00;99.90;;;;;;4994333;28;20377;-67
2023/01/06 01:49:24;;;;;;;;;;;12.00;99.90;;;;;;4993064;28;19906;-67
2023/01/06 01:51:50;;;;;;;;;;;12.10;99.90;;;;;;4994049;28;19910;-67
2023/01/06 01:54:19;;;;;;;;;;;12.10;99.90;;;;;;4993245;28;19909;-66
2023/01/06 01:56:48;;;;;;;;;;;12.00;99.90;;;;;;4993874;28;19933;-66
2023/01/06 01:59:16;;;;;;;;;;;12.00;99.90;;;;;;4994563;28;19905;-66
2023/01/06 02:01:41;;;;;;;;;;;12.10;99.90;;;;;;4994363;28;19980;-66
2023/01/06 02:04:08;;;;;;;;;;;12.10;99.90;;;;;;4994398;28;20354;-66
2023/01/06 02:06:33;;;;;;;;;;;12.10;99.90;;;;;;4993472;28;19913;-67
2023/01/06 02:09:01;;;;;;;;;;;12.10;99.90;;;;;;4994186;28;19964;-67
2023/01/06 02:11:28;;;;;;;;;;;12.10;99.90;;;;;;4993663;28;19956;-67
2023/01/06 02:13:59;;;;;;;;;;;12.10;99.90;;;;;;4992705;28;19905;-67
2023/01/06 02:16:44;;;;;;;;;;;12.10;99.90;;;;;;4994224;28;19948;-66
2023/01/06 02:19:28;;;;;;;;;;;12.20;99.90;;;;;;4993832;28;20014;-66
2023/01/06 02:22:12;;;;;;;;;;;12.10;99.90;;;;;;4993891;28;19988;-66
2023/01/06 02:24:56;;;;;;;;;;;12.20;99.90;;;;;;4993735;28;19932;-66
2023/01/06 02:27:40;;;;;;;;;;;12.20;99.90;;;;;;4993845;28;20393;-66
2023/01/06 02:30:15;;;;;;;;;;;12.10;99.90;;;;;;4994068;28;19916;-66
2023/01/06 02:32:53;;;;;;;;;;;12.10;99.90;;;;;;4994355;28;19906;-66
2023/01/06 02:35:38;;;;;;;;;;;12.10;99.90;;;;;;4994064;28;19912;-66
2023/01/06 02:38:08;;;;;;;;;;;12.10;99.90;;;;;;4992711;28;20354;-66
2023/01/06 02:40:34;;;;;;;;;;;12.10;99.90;;;;;;4994054;28;19945;-66
2023/01/06 02:43:25;;;;;;;;;;;12.10;99.90;;;;;;4993530;28;21333;-66
2023/01/06 02:45:57;;;;;;;;;;;12.00;99.90;;;;;;4991442;28;19910;-66
2023/01/06 02:48:31;;;;;;;;;;;11.90;99.90;;;;;;4993801;28;19989;-66
2023/01/06 02:51:05;;;;;;;;;;;11.90;99.90;;;;;;4993743;28;20311;-66
2023/01/06 02:53:36;;;;;;;;;;;11.90;99.90;;;;;;4993332;28;19905;-66
2023/01/06 02:56:02;;;;;;;;;;;11.80;99.90;;;;;;4993552;28;19906;-66
2023/01/06 02:58:43;;;;;;;;;;;11.70;99.90;;;;;;4992313;28;19956;-66
2023/01/06 03:01:21;;;;;;;;;;;11.50;99.90;;;;;;4994008;28;19913;-66
2023/01/06 03:03:47;;;;;;;;;;;11.40;99.90;;;;;;4993583;28;19945;-66
2023/01/06 03:06:14;;;;;;;;;;;11.40;99.90;;;;;;4992183;28;19955;-66
2023/01/06 03:08:40;;;;;;;;;;;11.40;99.90;;;;;;4992314;28;19917;-66
2023/01/06 03:11:05;;;;;;;;;;;11.50;99.90;;;;;;4999764;28;19916;-66
2023/01/06 03:13:34;;;;;;;;;;;11.50;99.90;;;;;;4999066;28;19906;-66
2023/01/06 03:15:59;;;;;;;;;;;11.50;99.90;;;;;;4992845;28;20392;-66
2023/01/06 03:18:25;;;;;;;;;;;11.40;99.90;;;;;;4995943;28;19917;-66
2023/01/06 03:20:52;;;;;;;;;;;11.50;99.90;;;;;;4997297;28;19909;-66
2023/01/06 03:23:18;;;;;;;;;;;11.50;99.90;;;;;;4997075;28;19906;-66
2023/01/06 03:25:43;;;;;;;;;;;11.50;99.90;;;;;;4997563;28;19932;-65
2023/01/06 03:28:09;;;;;;;;;;;11.40;99.90;;;;;;4998205;28;19905;-67
2023/01/06 03:30:46;;;;;;;;;;;11.40;99.90;;;;;;4998468;28;20286;-67
2023/01/06 03:33:19;;;;;;;;;;;11.40;99.90;;;;;;4997864;28;19906;-67
2023/01/06 03:36:03;;;;;;;;;;;11.30;99.90;;;;;;4997255;28;19995;-65
2023/01/06 03:38:32;;;;;;;;;;;11.30;99.90;;;;;;4996976;28;19918;-65
2023/01/06 03:41:01;;;;;;;;;;;11.30;99.90;;;;;;4997377;28;20302;-66
2023/01/06 03:43:45;;;;;;;;;;;11.30;99.90;;;;;;4996839;28;20359;-65
2023/01/06 03:46:13;;;;;;;;;;;11.20;99.90;;;;;;4996804;28;19917;-66
2023/01/06 03:48:54;;;;;;;;;;;11.20;99.90;;;;;;4995977;28;19912;-66
2023/01/06 03:51:29;;;;;;;;;;;11.10;99.90;;;;;;4995160;28;19910;-66
2023/01/06 03:54:00;;;;;;;;;;;11.10;99.90;;;;;;4995334;28;20295;-65
2023/01/06 03:56:31;;;;;;;;;;;11.00;99.90;;;;;;4996638;28;19914;-66
2023/01/06 03:58:59;;;;;;;;;;;11.10;99.90;;;;;;4997107;28;19997;-66
2023/01/06 04:01:25;;;;;;;;;;;11.00;99.90;;;;;;4996824;28;19964;-66
2023/01/06 04:03:51;;;;;;;;;;;11.00;99.90;;;;;;4996775;28;20236;-66
2023/01/06 04:06:17;;;;;;;;;;;11.00;99.90;;;;;;4996435;28;20274;-66
2023/01/06 04:08:43;;;;;;;;;;;11.00;99.90;;;;;;4996187;28;19906;-67
2023/01/06 04:12:37;;;;;;;;;;;11.00;99.90;;;;;;4996659;28;20378;-66
2023/01/06 04:13:53;;;;;;;;;;;11.00;99.90;;;;;;4996032;28;19949;-66
2023/01/06 04:16:19;;;;;;;;;;;11.00;99.90;;;;;;4996428;28;20252;-66
2023/01/06 04:18:45;;;;;;;;;;;11.10;99.90;;;;;;4996886;28;20251;-66
2023/01/06 04:21:11;;;;;;;;;;;11.20;99.90;;;;;;4996279;28;19912;-66
2023/01/06 04:23:36;;;;;;;;;;;11.10;99.90;;;;;;4996151;28;19910;-66
2023/01/06 04:26:01;;;;;;;;;;;11.20;99.90;;;;;;4995862;28;19910;-66
2023/01/06 04:28:27;;;;;;;;;;;11.10;99.90;;;;;;4996199;28;19906;-67
2023/01/06 04:30:56;;;;;;;;;;;11.20;99.90;;;;;;4995921;28;19999;-66
2023/01/06 04:33:21;;;;;;;;;;;11.20;99.90;;;;;;4995806;28;19906;-66
2023/01/06 04:35:47;;;;;;;;;;;11.20;99.90;;;;;;4994092;28;19917;-66
2023/01/06 04:38:12;;;;;;;;;;;11.20;99.90;;;;;;5007061;28;19914;-66
2023/01/06 04:40:37;;;;;;;;;;;11.10;99.90;;;;;;4995439;28;19992;-66
2023/01/06 04:43:03;;;;;;;;;;;11.10;99.90;;;;;;4996318;28;19948;-66
2023/01/06 04:45:28;;;;;;;;;;;11.10;99.90;;;;;;4997321;28;19910;-66
2023/01/06 04:47:54;;;;;;;;;;;11.10;99.90;;;;;;4995279;28;19914;-66
2023/01/06 04:50:19;;;;;;;;;;;11.10;99.90;;;;;;4994080;28;19910;-66
2023/01/06 04:52:44;;;;;;;;;;;11.00;99.90;;;;;;4995940;28;19905;-66
2023/01/06 04:55:10;;;;;;;;;;;11.00;99.90;;;;;;4993840;28;20025;-66
2023/01/06 04:57:35;;;;;;;;;;;11.00;99.90;;;;;;4995020;28;19917;-67
2023/01/06 05:00:01;;;;;;;;;;;11.00;99.90;;;;;;4995848;28;19917;-66
2023/01/06 05:02:26;;;;;;;;;;;10.90;99.90;;;;;;4995500;28;19906;-66
2023/01/06 05:04:52;;;;;;;;;;;10.90;99.90;;;;;;4995156;28;20399;-66
2023/01/06 05:07:17;;;;;;;;;;;11.10;99.90;;;;;;5002162;28;19905;-66
2023/01/06 05:09:42;;;;;;;;;;;10.90;99.90;;;;;;5015098;28;19928;-66
2023/01/06 05:12:08;;;;;;;;;;;10.80;99.90;;;;;;5014296;28;20306;-66
2023/01/06 05:14:33;;;;;;;;;;;10.80;99.90;;;;;;5014302;28;19996;-67
2023/01/06 05:16:59;;;;;;;;;;;10.90;99.90;;;;;;5014204;28;19906;-67
2023/01/06 05:19:24;;;;;;;;;;;10.90;99.90;;;;;;4997444;28;19934;-67
2023/01/06 05:21:50;;;;;;;;;;;11.00;99.90;;;;;;4994519;28;19906;-67
2023/01/06 05:24:15;;;;;;;;;;;10.90;99.90;;;;;;4995189;28;19941;-67
2023/01/06 05:26:40;;;;;;;;;;;10.90;99.90;;;;;;4994201;28;20399;-67
2023/01/06 05:29:06;;;;;;;;;;;10.90;99.90;;;;;;4994337;28;20334;-67
2023/01/06 05:31:31;;;;;;;;;;;10.80;99.90;;;;;;4993360;28;20008;-67
2023/01/06 05:33:57;;;;;;;;;;;10.80;99.90;;;;;;4994712;28;19972;-67
2023/01/06 05:36:22;;;;;;;;;;;10.80;99.90;;;;;;4992873;28;19929;-66
2023/01/06 05:38:52;;;;;;;;;;;10.80;99.90;;;;;;4994282;28;20239;-66
2023/01/06 05:41:17;;;;;;;;;;;10.80;99.90;;;;;;4993567;28;19910;-66
2023/01/06 05:43:43;;;;;;;;;;;10.80;99.90;;;;;;4994198;28;20381;-66
2023/01/06 05:46:09;;;;;;;;;;;11.00;99.90;;;;;;4994353;28;20055;-66
2023/01/06 05:48:34;;;;;;;;;;;10.90;99.90;;;;;;4993496;28;19906;-67
2023/01/06 05:51:04;;;;;;;;;;;10.90;99.90;;;;;;4994152;28;19909;-67
2023/01/06 05:53:33;;;;;;;;;;;10.90;99.90;;;;;;4994501;28;19965;-66
2023/01/06 05:56:00;;;;;;;;;;;10.90;99.90;;;;;;4993703;28;19906;-66
2023/01/06 05:58:25;;;;;;;;;;;10.80;99.90;;;;;;4994099;28;19933;-66
2023/01/06 06:00:51;;;;;;;;;;;11.00;99.90;;;;;;4994100;28;19909;-66
2023/01/06 06:03:16;;;;;;;;;;;11.10;99.90;;;;;;4994029;28;20312;-66
2023/01/06 06:05:42;;;;;;;;;;;11.10;99.90;;;;;;4993958;28;19910;-66
2023/01/06 06:08:07;;;;;;;;;;;11.20;99.90;;;;;;4980376;28;19914;-66
2023/01/06 06:10:33;;;;;;;;;;;11.00;99.90;;;;;;4990383;28;19916;-66
2023/01/06 06:12:58;;;;;;;;;;;11.00;99.90;;;;;;4993905;28;19956;-67
2023/01/06 06:15:23;;;;;;;;;;;11.10;99.90;;;;;;4994215;28;19906;-67
2023/01/06 06:17:49;;;;;;;;;;;11.10;99.90;;;;;;4994082;28;19906;-67
2023/01/06 06:20:14;;;;;;;;;;;11.00;99.90;;;;;;4993068;28;19993;-67
2023/01/06 06:22:40;;;;;;;;;;;11.00;99.90;;;;;;4993401;28;20351;-66
2023/01/06 06:25:05;;;;;;;;;;;10.90;99.90;;;;;;4996581;28;20015;-66
2023/01/06 06:27:31;;;;;;;;;;;11.10;99.90;;;;;;4994076;28;19906;-65
2023/01/06 06:29:56;;;;;;;;;;;11.10;99.90;;;;;;4994500;28;20052;-67
2023/01/06 06:32:22;;;;;;;;;;;11.20;99.90;;;;;;4994500;28;19992;-66
2023/01/06 06:34:47;;;;;;;;;;;11.00;99.90;;;;;;4994397;28;20023;-65
2023/01/06 06:37:13;;;;;;;;;;;11.00;99.90;;;;;;4999886;28;19936;-66
2023/01/06 06:39:38;;;;;;;;;;;11.00;99.90;;;;;;5013770;28;19910;-67
2023/01/06 06:42:04;;;;;;;;;;;11.00;99.90;;;;;;5012905;28;19917;-67
2023/01/06 06:44:29;;;;;;;;;;;11.00;99.90;;;;;;4999446;28;19916;-67
2023/01/06 06:46:55;;;;;;;;;;;11.00;99.90;;;;;;4993909;28;19921;-67
2023/01/06 06:49:20;;;;;;;;;;;11.10;99.90;;;;;;4993778;28;19905;-67
2023/01/06 06:51:46;;;;;;;;;;;11.10;99.90;;;;;;4993933;28;19913;-67
2023/01/06 06:54:12;;;;;;;;;;;11.10;99.90;;;;;;4996602;28;19906;-66
2023/01/06 06:56:37;;;;;;;;;;;11.10;99.90;;;;;;4997171;28;19912;-67
2023/01/06 06:59:03;;;;;;;;;;;11.10;99.90;;;;;;4996011;28;19992;-67
2023/01/06 07:01:30;;;;;;;;;;;11.10;99.90;;;;;;4997325;28;19905;-66
2023/01/06 07:03:55;;;;;;;;;;;11.00;99.90;;;;;;4997087;28;20374;-66
2023/01/06 07:06:22;;;;;;;;;;;11.00;99.90;;;;;;4997878;28;19910;-66
2023/01/06 07:08:47;;;;;;;;;;;11.00;99.90;;;;;;4997206;28;19906;-66
2023/01/06 07:11:13;;;;;;;;;;;10.90;99.90;;;;;;4997068;28;19952;-66
2023/01/06 07:13:39;;;;;;;;;;;11.00;99.90;;;;;;4997322;28;20381;-66
2023/01/06 07:16:04;;;;;;;;;;;11.00;99.90;;;;;;4996828;28;20478;-67
2023/01/06 07:18:30;;;;;;;;;;;11.00;99.90;;;;;;4996780;28;19979;-68
2023/01/06 07:20:55;;;;;;;;;;;11.10;99.90;;;;;;4996061;28;19917;-67
2023/01/06 07:23:22;;;;;;;;;;;11.10;99.90;;;;;;4995893;28;19996;-66
2023/01/06 07:25:51;;;;;;;;;;;11.10;99.90;;;;;;4996769;28;19916;-66
2023/01/06 07:28:17;;;;;;;;;;;11.00;99.90;;;;;;4997274;28;19906;-67
2023/01/06 07:30:42;;;;;;;;;;;10.90;99.90;;;;;;4997086;28;19906;-67
2023/01/06 07:33:08;;;;;;;;;;;11.00;99.90;;;;;;4996834;28;19956;-68
2023/01/06 07:35:33;;;;;;;;;;;11.00;99.90;;;;;;4995893;28;19916;-67
2023/01/06 07:38:03;;;;;;;;;;;10.90;99.90;;;;;;4997211;28;19977;-67
2023/01/06 07:40:28;;;;;;;;;;;11.00;99.90;;;;;;4994707;28;19955;-66
2023/01/06 07:42:54;;;;;;;;;;;11.00;99.90;;;;;;4994617;28;19917;-67
2023/01/06 07:45:19;;;;;;;;;;;11.00;99.90;;;;;;4991677;28;20375;-67
2023/01/06 07:47:44;;;;;;;;;;;11.00;99.90;;;;;;4987047;28;20441;-67
2023/01/06 07:50:10;;;;;;;;;;;10.90;99.90;;;;;;4991839;28;19917;-66
2023/01/06 07:52:35;;;;;;;;;;;10.90;99.90;;;;;;4995867;28;19920;-67
2023/01/06 07:55:01;;;;;;;;;;;10.90;99.90;;;;;;4995736;28;20004;-66
2023/01/06 07:57:27;;;;;;;;;;;11.00;99.90;;;;;;4994633;28;19910;-66
2023/01/06 07:59:52;;;;;;;;;;;11.00;99.90;;;;;;4995797;28;19918;-66
2023/01/06 08:02:18;;;;;;;;;;;11.00;99.90;;;;;;4995906;28;19972;-67
2023/01/06 08:04:43;;;;;;;;;;;11.10;99.90;;;;;;4996777;28;19910;-67
2023/01/06 08:07:09;;;;;;;;;;;11.00;99.90;;;;;;5002673;28;20009;-67
2023/01/06 08:09:34;;;;;;;;;;;11.10;99.90;;;;;;4993236;28;19947;-66
2023/01/06 08:12:00;;;;;;;;;;;11.00;99.90;;;;;;4975867;28;19918;-67
2023/01/06 08:14:25;;;;;;;;;;;11.10;99.90;;;;;;5001875;28;19913;-67
2023/01/06 08:16:50;;;;;;;;;;;11.20;99.90;;;;;;5035197;28;20007;-66
2023/01/06 08:19:16;;;;;;;;;;;11.10;99.90;;;;;;5035618;28;19909;-67
2023/01/06 08:21:41;;;;;;;;;;;11.20;99.90;;;;;;5035472;28;19909;-66
2023/01/06 08:24:07;;;;;;;;;;;11.20;99.90;;;;;;5034663;28;19975;-67
2023/01/06 08:26:32;;;;;;;;;;;11.20;99.90;;;;;;5034800;28;19909;-66
2023/01/06 08:28:58;;;;;;;;;;;11.30;99.90;;;;;;5035191;28;19905;-66
2023/01/06 08:31:23;;;;;;;;;;;11.40;99.90;;;;;;5035343;28;19971;-67
2023/01/06 08:33:50;;;;;;;;;;;11.40;99.90;;;;;;5035017;28;19909;-67
2023/01/06 08:36:17;;;;;;;;;;;11.40;99.90;;;;;;5034714;28;19999;-67
2023/01/06 08:38:42;;;;;;;;;;;11.40;99.90;;;;;;5034617;28;20334;-67
2023/01/06 08:41:08;;;;;;;;;;;11.50;99.90;;;;;;5034418;28;19968;-67
2023/01/06 08:43:35;;;;;;;;;;;11.50;99.90;;;;;;5034482;28;19909;-67
2023/01/06 08:46:01;;;;;;;;;;;11.50;99.90;;;;;;5034780;28;19909;-66
2023/01/06 08:48:27;;;;;;;;;;;11.40;99.90;;;;;;5029960;28;19960;-71
2023/01/06 08:50:53;;;;;;;;;;;11.40;99.90;;;;;;5016488;28;20270;-66
2023/01/06 08:53:18;;;;;;;;;;;11.50;99.90;;;;;;5016528;28;19909;-65
2023/01/06 08:55:44;;;;;;;;;;;11.50;99.90;;;;;;5035145;28;19905;-65
2023/01/06 08:58:10;;;;;;;;;;;11.60;99.90;;;;;;5034514;28;19905;-66
2023/01/06 09:00:36;;;;;;;;;;;11.70;99.90;;;;;;5034679;28;20296;-67
2023/01/06 09:03:02;;;;;;;;;;;11.80;99.90;;;;;;5034797;28;19909;-69
2023/01/06 09:05:27;;;;;;;;;;;11.80;99.90;;;;;;5034847;28;19913;-68
2023/01/06 09:07:53;;;;;;;;;;;11.90;99.90;;;;;;5050066;28;19905;-70
2023/01/06 09:10:19;;;;;;;;;;;11.90;99.90;;;;;;5054444;28;20050;-67
2023/01/06 09:12:45;;;;;;;;;;;12.00;99.90;;;;;;5034249;28;19947;-75
2023/01/06 09:15:11;;;;;;;;;;;12.00;99.90;;;;;;5016629;28;19913;-66
2023/01/06 09:17:36;;;;;;;;;;;11.90;99.90;;;;;;5034576;28;19916;-66
2023/01/06 09:20:02;;;;;;;;;;;12.00;99.90;;;;;;5034632;28;19912;-65
2023/01/06 09:22:27;;;;;;;;;;;11.90;99.90;;;;;;5036225;28;19927;-65
2023/01/06 09:24:53;;;;;;;;;;;12.00;99.90;;;;;;5030658;28;19910;-66
2023/01/06 09:27:18;;;;;;;;;;;12.10;99.90;;;;;;5021796;28;19905;-66
2023/01/06 09:29:44;;;;;;;;;;;12.00;99.90;;;;;;5024150;28;20019;-68
2023/01/06 09:32:09;;;;;;;;;;;12.10;99.90;;;;;;5033179;28;19909;-66
2023/01/06 09:34:35;;;;;;;;;;;12.20;99.90;;;;;;5014873;28;19905;-70
2023/01/06 09:37:00;;;;;;;;;;;12.20;99.90;;;;;;5033559;28;19913;-72
2023/01/06 09:39:26;;;;;;;;;;;12.10;99.90;;;;;;5034919;28;19917;-73
2023/01/06 09:41:54;;;;;;;;;;;12.10;99.90;;;;;;5012618;28;19909;-73
2023/01/06 09:44:41;;;;;;;;;;;11.90;99.90;;;;;;5021109;28;19949;-74
2023/01/06 09:47:08;;;;;;;;;;;12.10;99.90;;;;;;5034067;28;20388;-73
2023/01/06 09:49:45;;;;;;;;;;;12.20;99.90;;;;;;5034989;28;19909;-71
2023/01/06 09:52:27;;;;;;;;;;;12.10;99.90;;;;;;5017175;28;19905;-72
2023/01/06 09:55:01;;;;;;;;;;;12.00;99.90;;;;;;5036185;28;19947;-74
2023/01/06 09:57:32;;;;;;;;;;;12.00;99.90;;;;;;5038408;28;19909;-75
2023/01/06 10:00:06;;;;;;;;;;;12.00;99.90;;;;;;5018645;28;19912;-72
2023/01/06 10:02:34;;;;;;;;;;;12.00;99.90;;;;;;5036175;28;19905;-72
2023/01/06 10:05:00;;;;;;;;;;;12.10;99.90;;;;;;5018947;28;19909;-74
2023/01/06 10:07:35;;;;;;;;;;;12.10;99.90;;;;;;5020768;28;19913;-76
2023/01/06 10:10:21;;;;;;;;;;;12.10;99.90;;;;;;5018822;28;19944;-77
2023/01/06 10:12:53;;;;;;;;;;;12.10;99.90;;;;;;5021385;28;19905;-76
2023/01/06 10:15:37;;;;;;;;;;;12.00;99.90;;;;;;5019712;28;20003;-76
2023/01/06 10:18:03;;;;;;;;;;;12.10;99.90;;;;;;5020702;28;20004;-74
2023/01/06 10:20:33;;;;;;;;;;;12.30;99.90;;;;;;5037404;28;19943;-75
2023/01/06 10:23:17;;;;;;;;;;;12.50;99.90;;;;;;5017210;28;19912;-74
2023/01/06 10:25:50;;;;;;;;;;;12.60;99.90;;;;;;5017298;28;19963;-75
2023/01/06 10:28:18;;;;;;;;;;;12.70;99.90;;;;;;5041107;28;19908;-74
2023/01/06 10:30:46;;;;;;;;;;;12.70;99.90;;;;;;5026077;28;19905;-76
2023/01/06 10:33:26;;;;;;;;;;;12.50;99.90;;;;;;5025878;28;19905;-66
2023/01/06 10:35:53;;;;;;;;;;;12.50;99.90;;;;;;5037903;28;20246;-66
2023/01/06 10:38:26;;;;;;;;;;;12.40;99.90;;;;;;5018407;28;19920;-67
2023/01/06 10:40:52;;;;;;;;;;;12.40;99.90;;;;;;5020983;28;19905;-73
2023/01/06 10:43:21;;;;;;;;;;;12.50;99.90;;;;;;5037077;28;19954;-72
2023/01/06 10:45:47;;;;;;;;;;;12.70;99.90;;;;;;5037056;28;20346;-73
2023/01/06 10:48:14;;;;;;;;;;;12.90;99.90;;;;;;5030789;28;19992;-74
2023/01/06 10:50:40;;;;;;;;;;;12.90;99.90;;;;;;5039130;28;19909;-75
2023/01/06 10:53:06;;;;;;;;;;;13.00;99.90;;;;;;5023864;28;19916;-74
2023/01/06 10:55:39;;;;;;;;;;;13.10;99.90;;;;;;5035906;28;19905;-76
2023/01/06 10:58:39;;;;;;;;;;;13.20;99.90;;;;;;5028089;28;19980;-76
2023/01/06 11:01:15;;;;;;;;;;;13.10;99.90;;;;;;5032995;28;19905;-75
2023/01/06 11:03:43;;;;;;;;;;;13.10;99.90;;;;;;5047294;28;19905;-75
2023/01/06 11:06:14;;;;;;;;;;;13.20;99.90;;;;;;5029939;28;19932;-75
2023/01/06 11:08:40;;;;;;;;;;;13.30;99.90;;;;;;5028333;28;19941;-68
2023/01/06 11:11:11;;;;;;;;;;;13.30;99.90;;;;;;5030663;28;19909;-76
2023/01/06 11:13:38;;;;;;;;;;;13.20;99.90;;;;;;5054616;28;19909;-69
2023/01/06 11:16:05;;;;;;;;;;;13.30;99.90;;;;;;5036215;28;19911;-72
2023/01/06 11:18:32;;;;;;;;;;;13.30;99.90;;;;;;5018454;28;19927;-71
2023/01/06 11:21:05;;;;;;;;;;;13.40;99.90;;;;;;5020008;28;20005;-71
2023/01/06 11:23:31;;;;;;;;;;;13.30;99.90;;;;;;5020707;28;20352;-69
2023/01/06 11:25:59;;;;;;;;;;;13.40;99.90;;;;;;5037849;28;20386;-67
2023/01/06 11:28:25;;;;;;;;;;;13.40;99.90;;;;;;5038177;28;19905;-68
2023/01/06 11:30:52;;;;;;;;;;;13.30;99.90;;;;;;5039835;28;19936;-67
2023/01/06 11:33:19;;;;;;;;;;;13.30;99.90;;;;;;5043234;28;19905;-67
2023/01/06 11:35:44;;;;;;;;;;;13.40;99.90;;;;;;5043004;28;19954;-71
2023/01/06 11:38:14;;;;;;;;;;;13.30;99.90;;;;;;5037380;28;19972;-72
2023/01/06 11:40:41;;;;;;;;;;;13.30;99.90;;;;;;5018694;28;19905;-72
2023/01/06 11:43:14;;;;;;;;;;;13.10;99.90;;;;;;5036523;28;19909;-72
2023/01/06 11:45:48;;;;;;;;;;;13.10;99.90;;;;;;5033902;28;20381;-71
2023/01/06 11:48:18;;;;;;;;;;;13.10;99.90;;;;;;5029733;28;19979;-75
2023/01/06 11:50:54;;;;;;;;;;;13.20;99.90;;;;;;5018026;28;19948;-71
2023/01/06 11:53:20;;;;;;;;;;;13.20;99.90;;;;;;5036122;28;19905;-71
2023/01/06 11:56:01;;;;;;;;;;;13.40;99.90;;;;;;5035810;28;20393;-66
2023/01/06 11:58:45;;;;;;;;;;;13.50;99.90;;;;;;5035335;28;20289;-69
2023/01/06 12:01:15;;;;;;;;;;;13.70;99.90;;;;;;5035647;28;19995;-70
2023/01/06 12:03:43;;;;;;;;;;;13.70;99.90;;;;;;5035965;28;19905;-71
2023/01/06 12:06:17;;;;;;;;;;;13.70;99.90;;;;;;5018140;28;19917;-71
2023/01/06 12:08:50;;;;;;;;;;;13.60;99.90;;;;;;5018116;28;19912;-71
2023/01/06 12:11:22;;;;;;;;;;;13.60;99.90;;;;;;5032315;28;19909;-72
2023/01/06 12:13:48;;;;;;;;;;;13.70;99.90;;;;;;5035666;28;19909;-70
2023/01/06 12:16:16;;;;;;;;;;;13.70;99.90;;;;;;5018805;28;19928;-75
2023/01/06 12:18:42;;;;;;;;;;;13.60;99.90;;;;;;5035964;28;19905;-75
2023/01/06 12:21:11;;;;;;;;;;;13.70;99.90;;;;;;5035746;28;19906;-72
2023/01/06 12:23:38;;;;;;;;;;;13.60;99.90;;;;;;5035821;28;20313;-70
2023/01/06 12:26:08;;;;;;;;;;;13.30;99.90;;;;;;5035885;28;20346;-70
2023/01/06 12:28:36;;;;;;;;;;;13.20;99.90;;;;;;5035401;28;20267;-70
2023/01/06 12:31:04;;;;;;;;;;;13.20;99.90;;;;;;5034877;28;19909;-70
2023/01/06 12:33:34;;;;;;;;;;;13.30;99.90;;;;;;5017241;28;19916;-70
2023/01/06 12:36:02;;;;;;;;;;;13.20;99.90;;;;;;5017621;28;19916;-70
2023/01/06 12:38:39;;;;;;;;;;;13.30;99.90;;;;;;5017175;28;20393;-70
2023/01/06 12:41:23;;;;;;;;;;;13.40;99.90;;;;;;5034749;28;19913;-72
2023/01/06 12:43:52;;;;;;;;;;;13.40;99.90;;;;;;5016985;28;20336;-68
2023/01/06 12:46:27;;;;;;;;;;;13.40;99.90;;;;;;5034701;28;20277;-69
2023/01/06 12:48:55;;;;;;;;;;;13.50;99.90;;;;;;5017037;28;19909;-68
2023/01/06 12:51:43;;;;;;;;;;;13.50;99.90;;;;;;5035083;28;19905;-71
2023/01/06 12:54:23;;;;;;;;;;;13.50;99.90;;;;;;5035274;28;20405;-67
2023/01/06 12:57:00;;;;;;;;;;;13.50;99.90;;;;;;5035015;28;19912;-69
2023/01/06 12:59:37;;;;;;;;;;;13.30;99.90;;;;;;5034173;28;20012;-68
2023/01/06 13:02:11;;;;;;;;;;;13.00;99.90;;;;;;5034648;28;20374;-70
2023/01/06 13:04:49;;;;;;;;;;;13.00;99.90;;;;;;5016778;28;20280;-70
2023/01/06 13:07:28;;;;;;;;;;;13.00;99.90;;;;;;5049088;28;19908;-70
2023/01/06 13:10:03;;;;;;;;;;;12.70;99.90;;;;;;5054068;28;19911;-70
2023/01/06 13:12:47;;;;;;;;;;;12.80;99.90;;;;;;5036151;28;19996;-70
2023/01/06 13:15:12;;;;;;;;;;;12.80;99.90;;;;;;5054655;28;19911;-70
2023/01/06 13:17:40;;;;;;;;;;;12.70;99.90;;;;;;5054692;28;19991;-70
2023/01/06 13:20:10;;;;;;;;;;;12.80;99.90;;;;;;5053952;28;19905;-70
2023/01/06 13:22:59;;;;;;;;;;;12.80;99.90;;;;;;5054563;28;19921;-70
2023/01/06 13:25:30;;;;;;;;;;;12.80;99.90;;;;;;5054597;28;20368;-70
2023/01/06 13:28:09;;;;;;;;;;;12.70;99.90;;;;;;5053701;28;19920;-70
2023/01/06 13:30:44;;;;;;;;;;;12.60;99.90;;;;;;5054633;28;19909;-71
2023/01/06 13:33:18;;;;;;;;;;;12.50;99.90;;;;;;5054822;28;19927;-71
2023/01/06 13:35:58;;;;;;;;;;;12.60;99.90;;;;;;5037034;28;19928;-70
2023/01/06 13:38:43;;;;;;;;;;;12.60;99.90;;;;;;5017971;28;19916;-69
2023/01/06 13:41:12;;;;;;;;;;;12.70;99.90;;;;;;5016325;28;19916;-70
2023/01/06 13:43:38;;;;;;;;;;;12.70;99.90;;;;;;5034135;28;19905;-70
2023/01/06 13:46:05;;;;;;;;;;;12.70;99.90;;;;;;5016026;28;19936;-71
2023/01/06 13:48:34;;;;;;;;;;;12.60;99.90;;;;;;5033520;28;20282;-72
2023/01/06 13:51:02;;;;;;;;;;;12.60;99.90;;;;;;5015724;28;19962;-72
2023/01/06 13:53:34;;;;;;;;;;;12.60;99.90;;;;;;5015698;28;19967;-72
2023/01/06 13:56:12;;;;;;;;;;;12.60;99.90;;;;;;5016210;28;19952;-73
2023/01/06 13:58:38;;;;;;;;;;;12.60;99.90;;;;;;5033633;28;19911;-72
2023/01/06 14:01:08;;;;;;;;;;;12.60;99.90;;;;;;5015367;28;19909;-69
2023/01/06 14:03:34;;;;;;;;;;;12.60;99.90;;;;;;5033702;28;19905;-70
2023/01/06 14:06:01;;;;;;;;;;;12.70;99.90;;;;;;5028706;28;20359;-70
2023/01/06 14:08:28;;;;;;;;;;;12.70;99.90;;;;;;5021325;28;19966;-71
2023/01/06 14:10:55;;;;;;;;;;;12.60;99.90;;;;;;5033571;28;19905;-69
2023/01/06 14:13:23;;;;;;;;;;;12.60;99.90;;;;;;5015777;28;19905;-70
2023/01/06 14:15:55;;;;;;;;;;;12.60;99.90;;;;;;5034166;28;19916;-77
2023/01/06 14:18:32;;;;;;;;;;;12.60;99.90;;;;;;5016194;28;19912;-71
2023/01/06 14:21:00;;;;;;;;;;;12.50;99.90;;;;;;5015800;28;20345;-70
2023/01/06 14:23:26;;;;;;;;;;;12.50;99.90;;;;;;5015817;28;19912;-72
2023/01/06 14:25:53;;;;;;;;;;;12.50;99.90;;;;;;5033646;28;19916;-70